Time;durP1;ratioP1;P1;durP2;ratioP2;P2;SDS_P1;SDS_P2;PMS_P1;PMS_P2;Temp;Humidity;BMP_temperature;BMP_pressure;BME280_temperature;BME280_humidity;BME280_pressure;Samples;Min_cycle;Max_cycle;Signal;HPM_P1;HPM_P2
2023/04/11 00:01:00;;;;;;;;;;;;;;;;;;5054349;28;19921;-63
2023/04/11 00:03:27;;;;;;;;;;;;;;;;;;5054148;28;19951;-63
2023/04/11 00:05:54;;;;;;;;;;;;;;;;;;5054028;28;20295;-63
2023/04/11 00:08:21;;;;;;;;;;;;;;;;;;5054210;28;20306;-63
2023/04/11 00:10:48;;;;;;;;;;;;;;;;;;5053995;28;20460;-63
2023/04/11 00:13:14;;;;;;;;;;;;;;;;;;5054032;28;19951;-63
2023/04/11 00:15:42;;;;;;;;;;;;;;;;;;5054025;28;19920;-63
2023/04/11 00:18:11;;;;;;;;;;;;;;;;;;5052366;28;19951;-63
2023/04/11 00:20:38;;;;;;;;;;;;;;;;;;5054146;28;19927;-63
2023/04/11 00:23:07;;;;;;;;;;;8.40;99.90;;;;;;5053165;28;19982;-63
2023/04/11 00:25:35;;;;;;;;;;;8.90;99.90;;;;;;5053912;28;19928;-63
2023/04/11 00:28:01;;;;;;;;;;;8.80;99.90;;;;;;5053359;28;19920;-63
2023/04/11 00:30:28;;;;;;;;;;;8.80;99.90;;;;;;5053772;28;20443;-63
2023/04/11 00:32:54;;;;;;;;;;;8.90;99.90;;;;;;5053809;28;19921;-63
2023/04/11 00:35:21;;;;;;;;;;;8.90;99.90;;;;;;5055423;28;19966;-64
2023/04/11 00:37:53;;;;;;;;;;;8.90;99.90;;;;;;5053081;28;19951;-63
2023/04/11 00:40:20;;;;;;;;;;;8.90;99.90;;;;;;5053899;28;19959;-63
2023/04/11 00:42:47;;;;;;;;;;;8.90;99.90;;;;;;5053543;28;19920;-63
2023/04/11 00:45:14;;;;;;;;;;;8.90;99.90;;;;;;5053548;28;20345;-64
2023/04/11 00:47:41;;;;;;;;;;;9.00;99.90;;;;;;5053455;28;19978;-64
2023/04/11 00:50:08;;;;;;;;;;;9.00;99.90;;;;;;5053792;28;19920;-63
2023/04/11 00:52:34;;;;;;;;;;;9.00;99.90;;;;;;5053427;28;19920;-64
2023/04/11 00:55:01;;;;;;;;;;;9.00;99.90;;;;;;5053502;28;19920;-63
2023/04/11 00:57:31;;;;;;;;;;;9.00;99.90;;;;;;5053086;28;19924;-63
2023/04/11 00:59:58;;;;;;;;;;;9.00;99.90;;;;;;5053150;28;19998;-63
2023/04/11 01:02:24;;;;;;;;;;;9.00;99.90;;;;;;5053173;28;19924;-63
2023/04/11 01:04:52;;;;;;;;;;;9.00;99.90;;;;;;5053235;28;19921;-64
2023/04/11 01:07:19;;;;;;;;;;;9.10;99.90;;;;;;5053193;28;19921;-64
2023/04/11 01:09:46;;;;;;;;;;;9.10;99.90;;;;;;5053319;28;19924;-63
2023/04/11 01:12:14;;;;;;;;;;;9.10;99.90;;;;;;5053194;28;19943;-63
2023/04/11 01:14:42;;;;;;;;;;;9.10;99.90;;;;;;5052914;28;19921;-63
2023/04/11 01:17:11;;;;;;;;;;;9.10;99.90;;;;;;5052849;28;20330;-61
2023/04/11 01:19:38;;;;;;;;;;;9.10;99.90;;;;;;5052689;28;20325;-63
2023/04/11 01:22:04;;;;;;;;;;;9.00;99.90;;;;;;5052296;28;19921;-64
2023/04/11 01:24:32;;;;;;;;;;;9.10;99.90;;;;;;5052777;28;19974;-64
2023/04/11 01:27:00;;;;;;;;;;;9.00;99.90;;;;;;5052566;28;20303;-64
2023/04/11 01:29:27;;;;;;;;;;;9.00;99.90;;;;;;5052416;28;19921;-63
2023/04/11 01:31:53;;;;;;;;;;;9.00;99.90;;;;;;5052383;28;19986;-63
2023/04/11 01:34:21;;;;;;;;;;;9.00;99.90;;;;;;5052762;28;20271;-62
2023/04/11 01:36:47;;;;;;;;;;;9.00;99.90;;;;;;5052490;28;19921;-63
2023/04/11 01:39:14;;;;;;;;;;;9.00;99.90;;;;;;5052642;28;19921;-63
2023/04/11 01:41:42;;;;;;;;;;;9.00;99.90;;;;;;5052249;28;19920;-63
2023/04/11 01:44:09;;;;;;;;;;;9.00;99.90;;;;;;5051455;28;20329;-64
2023/04/11 01:46:35;;;;;;;;;;;9.00;99.90;;;;;;5052375;28;19932;-63
2023/04/11 01:49:02;;;;;;;;;;;9.00;99.90;;;;;;5052537;28;19920;-63
2023/04/11 01:51:29;;;;;;;;;;;9.00;99.90;;;;;;5052575;28;19974;-63
2023/04/11 01:53:56;;;;;;;;;;;9.00;99.90;;;;;;5052273;28;19932;-64
2023/04/11 01:56:22;;;;;;;;;;;9.00;99.90;;;;;;5052235;28;19974;-63
2023/04/11 01:58:50;;;;;;;;;;;9.00;99.90;;;;;;5051900;28;19921;-63
2023/04/11 02:01:17;;;;;;;;;;;8.90;99.90;;;;;;5052380;28;19924;-63
2023/04/11 02:03:44;;;;;;;;;;;9.00;99.90;;;;;;5048447;28;19920;-63
2023/04/11 02:06:10;;;;;;;;;;;9.00;99.90;;;;;;5052022;28;19974;-63
2023/04/11 02:08:36;;;;;;;;;;;8.90;99.90;;;;;;5051985;28;20386;-63
2023/04/11 02:11:06;;;;;;;;;;;8.90;99.90;;;;;;5052314;28;19920;-63
2023/04/11 02:13:33;;;;;;;;;;;8.90;99.90;;;;;;5051994;28;19921;-63
2023/04/11 02:16:05;;;;;;;;;;;8.90;99.90;;;;;;5052056;28;19920;-64
2023/04/11 02:18:31;;;;;;;;;;;8.90;99.90;;;;;;5052109;28;19966;-63
2023/04/11 02:20:58;;;;;;;;;;;8.90;99.90;;;;;;5048703;28;19921;-64
2023/04/11 02:23:24;;;;;;;;;;;8.80;99.90;;;;;;5051963;28;20387;-63
2023/04/11 02:25:51;;;;;;;;;;;8.80;99.90;;;;;;5051673;28;19920;-63
2023/04/11 02:28:17;;;;;;;;;;;8.80;99.90;;;;;;5052019;28;20278;-63
2023/04/11 02:30:44;;;;;;;;;;;8.80;99.90;;;;;;5051993;28;19921;-63
2023/04/11 02:33:12;;;;;;;;;;;8.80;99.90;;;;;;5054698;28;19924;-61
2023/04/11 02:35:39;;;;;;;;;;;8.80;99.90;;;;;;5055830;28;19927;-63
2023/04/11 02:38:05;;;;;;;;;;;8.80;99.90;;;;;;5055561;28;20011;-63
2023/04/11 02:40:32;;;;;;;;;;;8.80;99.90;;;;;;5055529;28;19998;-63
2023/04/11 02:42:59;;;;;;;;;;;8.80;99.90;;;;;;5056123;28;19921;-63
2023/04/11 02:45:26;;;;;;;;;;;8.80;99.90;;;;;;5051969;28;19975;-63
2023/04/11 02:47:52;;;;;;;;;;;8.70;99.90;;;;;;5055745;28;19928;-63
2023/04/11 02:50:20;;;;;;;;;;;8.70;99.90;;;;;;5055768;28;19982;-63
2023/04/11 02:52:48;;;;;;;;;;;8.70;99.90;;;;;;5055697;28;19986;-63
2023/04/11 02:55:14;;;;;;;;;;;8.60;99.90;;;;;;5055518;28;19944;-63
2023/04/11 02:57:41;;;;;;;;;;;8.60;99.90;;;;;;5055305;28;19921;-64
2023/04/11 03:00:08;;;;;;;;;;;8.50;99.90;;;;;;5055456;28;19966;-63
2023/04/11 03:02:35;;;;;;;;;;;8.40;99.90;;;;;;5055215;28;19971;-63
2023/04/11 03:05:02;;;;;;;;;;;8.40;99.90;;;;;;5055808;28;19920;-63
2023/04/11 03:07:31;;;;;;;;;;;8.40;99.90;;;;;;5055118;28;19927;-63
2023/04/11 03:09:58;;;;;;;;;;;8.40;99.90;;;;;;5055306;28;20287;-63
2023/04/11 03:12:25;;;;;;;;;;;8.40;99.90;;;;;;5055241;28;19920;-63
2023/04/11 03:14:51;;;;;;;;;;;8.40;99.90;;;;;;5054954;28;19921;-63
2023/04/11 03:17:18;;;;;;;;;;;8.40;99.90;;;;;;5054761;28;19920;-63
2023/04/11 03:19:44;;;;;;;;;;;8.40;99.90;;;;;;5055188;28;20264;-63
2023/04/11 03:22:11;;;;;;;;;;;8.40;99.90;;;;;;5055230;28;19921;-63
2023/04/11 03:24:39;;;;;;;;;;;8.30;99.90;;;;;;5054956;28;19936;-63
2023/04/11 03:27:05;;;;;;;;;;;8.30;99.90;;;;;;5054960;28;19921;-64
2023/04/11 03:29:32;;;;;;;;;;;8.30;99.90;;;;;;5056511;28;19924;-61
2023/04/11 03:31:59;;;;;;;;;;;8.30;99.90;;;;;;5054952;28;19920;-61
2023/04/11 03:34:25;;;;;;;;;;;8.30;99.90;;;;;;5054671;28;20367;-61
2023/04/11 03:36:52;;;;;;;;;;;8.30;99.90;;;;;;5054663;28;19927;-61
2023/04/11 03:39:19;;;;;;;;;;;8.30;99.90;;;;;;5054833;28;20341;-61
2023/04/11 03:41:47;;;;;;;;;;;8.30;99.90;;;;;;5054531;28;20015;-61
2023/04/11 03:44:13;;;;;;;;;;;8.30;99.90;;;;;;5053632;28;19920;-61
2023/04/11 03:46:40;;;;;;;;;;;8.30;99.90;;;;;;5054588;28;19920;-61
2023/04/11 03:49:06;;;;;;;;;;;8.20;99.90;;;;;;5054768;28;19932;-62
2023/04/11 03:51:33;;;;;;;;;;;8.20;99.90;;;;;;5054368;28;19925;-62
2023/04/11 03:53:59;;;;;;;;;;;8.20;99.90;;;;;;5054261;28;19920;-61
2023/04/11 03:56:27;;;;;;;;;;;8.20;99.90;;;;;;5042531;28;20031;-62
2023/04/11 03:58:54;;;;;;;;;;;8.20;99.90;;;;;;5048006;28;19921;-62
2023/04/11 04:01:21;;;;;;;;;;;8.20;99.90;;;;;;5053793;28;20370;-61
2023/04/11 04:03:48;;;;;;;;;;;8.20;99.90;;;;;;5053780;28;19929;-62
2023/04/11 04:06:14;;;;;;;;;;;8.20;99.90;;;;;;5052208;28;20351;-62
2023/04/11 04:08:41;;;;;;;;;;;8.30;99.90;;;;;;5054070;28;19928;-63
2023/04/11 04:11:07;;;;;;;;;;;8.30;99.90;;;;;;5054566;28;19933;-62
2023/04/11 04:13:34;;;;;;;;;;;8.30;99.90;;;;;;5053975;28;20375;-62
2023/04/11 04:16:01;;;;;;;;;;;8.20;99.90;;;;;;5053766;28;19925;-62
2023/04/11 04:18:28;;;;;;;;;;;8.20;99.90;;;;;;5053677;28;19924;-62
2023/04/11 04:20:54;;;;;;;;;;;8.20;99.90;;;;;;5054308;28;19921;-62
2023/04/11 04:23:22;;;;;;;;;;;8.20;99.90;;;;;;5054010;28;19998;-62
2023/04/11 04:25:49;;;;;;;;;;;8.20;99.90;;;;;;5053874;28;19920;-62
2023/04/11 04:28:19;;;;;;;;;;;8.20;99.90;;;;;;5053950;28;19921;-62
2023/04/11 04:30:48;;;;;;;;;;;8.20;99.90;;;;;;5053484;28;20379;-62
2023/04/11 04:33:17;;;;;;;;;;;8.20;99.90;;;;;;5053625;28;19971;-63
2023/04/11 04:35:44;;;;;;;;;;;8.20;99.90;;;;;;5053660;28;20351;-62
2023/04/11 04:38:16;;;;;;;;;;;8.20;99.90;;;;;;5053553;28;19921;-62
2023/04/11 04:40:42;;;;;;;;;;;8.20;99.90;;;;;;5053476;28;19925;-62
2023/04/11 04:43:17;;;;;;;;;;;8.20;99.90;;;;;;5053347;28;20371;-62
2023/04/11 04:45:43;;;;;;;;;;;8.20;99.90;;;;;;5053349;28;20027;-62
2023/04/11 04:48:10;;;;;;;;;;;8.20;99.90;;;;;;5053058;28;19921;-62
2023/04/11 04:50:38;;;;;;;;;;;8.20;99.90;;;;;;5053424;28;19920;-62
2023/04/11 04:53:05;;;;;;;;;;;8.20;99.90;;;;;;5053258;28;20371;-62
2023/04/11 04:55:31;;;;;;;;;;;8.20;99.90;;;;;;5052145;28;20362;-62
2023/04/11 04:57:58;;;;;;;;;;;8.20;99.90;;;;;;5052877;28;19983;-62
2023/04/11 05:00:24;;;;;;;;;;;8.20;99.90;;;;;;5052840;28;19921;-62
2023/04/11 05:02:53;;;;;;;;;;;8.20;99.90;;;;;;5053040;28;19951;-62
2023/04/11 05:05:19;;;;;;;;;;;8.20;99.90;;;;;;5053108;28;20333;-62
2023/04/11 05:07:48;;;;;;;;;;;8.20;99.90;;;;;;5052929;28;19921;-62
2023/04/11 05:10:14;;;;;;;;;;;8.20;99.90;;;;;;5053344;28;19921;-62
2023/04/11 05:12:40;;;;;;;;;;;8.20;99.90;;;;;;5052651;28;20387;-62
2023/04/11 05:15:10;;;;;;;;;;;8.10;99.90;;;;;;5052641;28;19920;-62
2023/04/11 05:17:36;;;;;;;;;;;8.10;99.90;;;;;;5052783;28;19920;-62
2023/04/11 05:20:04;;;;;;;;;;;8.10;99.90;;;;;;5052898;28;19920;-62
2023/04/11 05:22:31;;;;;;;;;;;8.10;99.90;;;;;;5052697;28;20007;-62
2023/04/11 05:24:58;;;;;;;;;;;8.10;99.90;;;;;;5052933;28;19921;-63
2023/04/11 05:27:25;;;;;;;;;;;8.10;99.90;;;;;;5052715;28;19955;-64
2023/04/11 05:29:53;;;;;;;;;;;8.10;99.90;;;;;;5053176;28;19931;-62
2023/04/11 05:32:19;;;;;;;;;;;8.10;99.90;;;;;;5053479;28;19920;-62
2023/04/11 05:34:52;;;;;;;;;;;8.10;99.90;;;;;;5053876;28;19921;-62
2023/04/11 05:37:19;;;;;;;;;;;8.10;99.90;;;;;;5053055;28;20383;-62
2023/04/11 05:39:46;;;;;;;;;;;8.10;99.90;;;;;;5052654;28;19920;-62
2023/04/11 05:42:16;;;;;;;;;;;8.00;99.90;;;;;;5052130;28;19967;-62
2023/04/11 05:44:42;;;;;;;;;;;8.00;99.90;;;;;;5052353;28;19946;-62
2023/04/11 05:47:10;;;;;;;;;;;8.10;99.90;;;;;;5048801;28;19924;-62
2023/04/11 05:49:37;;;;;;;;;;;;;;;;;;5052634;28;19967;-62
2023/04/11 05:52:04;;;;;;;;;;;;;;;;;;5052513;28;19921;-62
2023/04/11 05:54:31;;;;;;;;;;;8.10;99.90;;;;;;5052342;28;19928;-63
2023/04/11 05:56:58;;;;;;;;;;;8.10;99.90;;;;;;5052045;28;19925;-62
2023/04/11 05:59:27;;;;;;;;;;;8.10;99.90;;;;;;5053144;28;19924;-63
2023/04/11 06:01:53;;;;;;;;;;;8.20;99.90;;;;;;5052721;28;20446;-64
2023/04/11 06:04:20;;;;;;;;;;;8.40;97.70;;;;;;5053049;28;19951;-63
2023/04/11 06:06:47;;;;;;;;;;;8.60;99.00;;;;;;5051461;28;19920;-62
2023/04/11 06:09:13;;;;;;;;;;;8.60;88.90;;;;;;5053174;28;20363;-63
2023/04/11 06:11:40;;;;;;;;;;;8.60;96.50;;;;;;5052091;28;20275;-63
2023/04/11 06:14:06;;;;;;;;;;;8.50;95.00;;;;;;5051773;28;19971;-63
2023/04/11 06:16:35;;;;;;;;;;;8.40;99.90;;;;;;5051504;28;19924;-63
2023/04/11 06:19:02;;;;;;;;;;;8.30;99.90;;;;;;5052426;28;19991;-63
2023/04/11 06:21:28;;;;;;;;;;;8.20;99.90;;;;;;5051798;28;20383;-62
2023/04/11 06:23:55;;;;;;;;;;;8.10;99.90;;;;;;5052448;28;19951;-63
2023/04/11 06:26:22;;;;;;;;;;;;;;;;;;5052067;28;19924;-63
2023/04/11 06:28:50;;;;;;;;;;;;;;;;;;5051623;28;19925;-63
2023/04/11 06:31:16;;;;;;;;;;;8.10;99.90;;;;;;5052228;28;19924;-63
2023/04/11 06:33:44;;;;;;;;;;;8.20;99.90;;;;;;5051742;28;19920;-63
2023/04/11 06:36:11;;;;;;;;;;;8.30;99.90;;;;;;5051625;28;19925;-63
2023/04/11 06:38:39;;;;;;;;;;;8.30;99.90;;;;;;5051904;28;19924;-63
2023/04/11 06:41:06;;;;;;;;;;;8.30;99.90;;;;;;5048676;28;20011;-62
2023/04/11 06:43:32;;;;;;;;;;;8.40;92.40;;;;;;5051585;28;20338;-63
2023/04/11 06:45:59;;;;;;;;;;;8.50;47.10;;;;;;5051630;28;19924;-63
2023/04/11 06:48:25;;;;;;;;;;;8.50;44.40;;;;;;5051459;28;20410;-63
2023/04/11 06:50:53;;;;;;;;;;;8.70;36.90;;;;;;5052010;28;19967;-63
2023/04/11 06:53:20;;;;;;;;;;;8.70;11.20;;;;;;5048782;28;19990;-63
2023/04/11 06:55:48;;;;;;;;;;;8.70;1.00;;;;;;5051630;28;19927;-63
2023/04/11 06:58:15;;;;;;;;;;;8.70;1.00;;;;;;5051217;28;20527;-63
2023/04/11 07:00:41;;;;;;;;;;;8.60;1.00;;;;;;5051670;28;19925;-63
2023/04/11 07:03:08;;;;;;;;;;;8.70;1.00;;;;;;5051449;28;19982;-62
2023/04/11 07:05:35;;;;;;;;;;;8.80;1.00;;;;;;5051815;28;19921;-63
2023/04/11 07:08:02;;;;;;;;;;;8.90;1.00;;;;;;5051530;28;19968;-63
2023/04/11 07:10:29;;;;;;;;;;;9.10;1.00;;;;;;5051964;28;20329;-63
2023/04/11 07:12:55;;;;;;;;;;;9.20;1.00;;;;;;5051637;28;19927;-64
2023/04/11 07:15:22;;;;;;;;;;;9.20;1.00;;;;;;5051502;28;20333;-62
2023/04/11 07:17:49;;;;;;;;;;;9.20;1.00;;;;;;5051562;28;19928;-63
2023/04/11 07:20:15;;;;;;;;;;;9.10;1.00;;;;;;5054177;28;19978;-63
2023/04/11 07:22:42;;;;;;;;;;;9.20;1.00;;;;;;5055272;28;19921;-63
2023/04/11 07:25:10;;;;;;;;;;;9.10;1.00;;;;;;5055077;28;19974;-63
2023/04/11 07:27:37;;;;;;;;;;;9.10;1.00;;;;;;5054809;28;19920;-63
2023/04/11 07:30:04;;;;;;;;;;;9.10;1.00;;;;;;5054776;28;19921;-63
2023/04/11 07:32:31;;;;;;;;;;;9.10;1.00;;;;;;5055434;28;20016;-63
2023/04/11 07:34:57;;;;;;;;;;;9.20;1.00;;;;;;5055222;28;19970;-63
2023/04/11 07:37:25;;;;;;;;;;;9.40;1.00;;;;;;5054873;28;19987;-63
2023/04/11 07:39:52;;;;;;;;;;;9.50;1.00;;;;;;5054975;28;19925;-63
2023/04/11 07:42:20;;;;;;;;;;;9.40;1.00;;;;;;5054495;28;20576;-63
2023/04/11 07:44:46;;;;;;;;;;;9.30;99.90;;;;;;5054149;28;19921;-63
2023/04/11 07:47:12;;;;;;;;;;;9.40;1.00;;;;;;5054503;28;19971;-63
2023/04/11 07:49:39;;;;;;;;;;;9.40;1.00;;;;;;5054077;28;19978;-63
2023/04/11 07:52:06;;;;;;;;;;;;;;;;;;5055801;28;19920;-63
2023/04/11 07:54:33;;;;;;;;;;;;;;;;;;5054073;28;19929;-63
2023/04/11 07:57:01;;;;;;;;;;;;;;;;;;5054309;28;19928;-63
2023/04/11 07:59:28;;;;;;;;;;;;;;;;;;5054807;28;20035;-63
2023/04/11 08:01:54;;;;;;;;;;;;;;;;;;5054803;28;19921;-63
2023/04/11 08:04:22;;;;;;;;;;;9.50;1.00;;;;;;5054740;28;19921;-63
2023/04/11 08:06:49;;;;;;;;;;;9.80;99.90;;;;;;5054362;28;19990;-63
2023/04/11 08:09:15;;;;;;;;;;;9.90;99.90;;;;;;5054636;28;19921;-63
2023/04/11 08:11:42;;;;;;;;;;;9.80;99.90;;;;;;5050431;28;19974;-63
2023/04/11 08:14:08;;;;;;;;;;;9.70;1.00;;;;;;5051918;28;19978;-63
2023/04/11 08:16:35;;;;;;;;;;;9.90;1.00;;;;;;5053974;28;19982;-63
2023/04/11 08:19:01;;;;;;;;;;;9.90;99.90;;;;;;5054189;28;19921;-63
2023/04/11 08:21:30;;;;;;;;;;;9.80;99.90;;;;;;5054083;28;19928;-63
2023/04/11 08:23:56;;;;;;;;;;;9.70;99.90;;;;;;5050416;28;19920;-63
2023/04/11 08:26:23;;;;;;;;;;;9.80;99.90;;;;;;5053766;28;20015;-63
2023/04/11 08:28:50;;;;;;;;;;;;;;;;;;5054000;28;20035;-63
2023/04/11 08:31:17;;;;;;;;;;;10.10;99.90;;;;;;5053454;28;19924;-63
2023/04/11 08:33:43;;;;;;;;;;;10.20;1.00;;;;;;5053982;28;19928;-63
2023/04/11 08:36:10;;;;;;;;;;;10.20;99.90;;;;;;5049891;28;19925;-63
2023/04/11 08:38:37;;;;;;;;;;;;;;;;;;5053616;28;19924;-63
2023/04/11 08:41:04;;;;;;;;;;;;;;;;;;5053329;28;19921;-63
2023/04/11 08:43:33;;;;;;;;;;;10.40;99.90;;;;;;5053524;28;20310;-63
2023/04/11 08:46:01;;;;;;;;;;;10.90;56.20;;;;;;5053237;28;20356;-63
2023/04/11 08:48:28;;;;;;;;;;;10.70;1.00;;;;;;5053852;28;19974;-63
2023/04/11 08:50:54;;;;;;;;;;;10.80;99.90;;;;;;5053515;28;19994;-63
2023/04/11 08:53:23;;;;;;;;;;;10.70;99.90;;;;;;5053423;28;19925;-63
2023/04/11 08:55:50;;;;;;;;;;;10.70;99.90;;;;;;5053041;28;19962;-63
2023/04/11 08:58:16;;;;;;;;;;;10.80;99.90;;;;;;5053212;28;19966;-63
2023/04/11 09:00:44;;;;;;;;;;;10.90;99.90;;;;;;5053210;28;19925;-63
2023/04/11 09:03:11;;;;;;;;;;;10.90;1.00;;;;;;5052932;28;20337;-63
2023/04/11 09:05:39;;;;;;;;;;;10.90;99.90;;;;;;5049639;28;19982;-63
2023/04/11 09:08:06;;;;;;;;;;;11.00;99.90;;;;;;5053058;28;19920;-63
2023/04/11 09:10:33;;;;;;;;;;;11.20;99.90;;;;;;5053221;28;19924;-63
2023/04/11 09:13:01;;;;;;;;;;;11.40;1.00;;;;;;5053131;28;19929;-63
2023/04/11 09:15:28;;;;;;;;;;;11.50;99.90;;;;;;5052912;28;20007;-63
2023/04/11 09:17:56;;;;;;;;;;;11.60;99.90;;;;;;5052315;28;19974;-63
2023/04/11 09:20:25;;;;;;;;;;;11.50;1.00;;;;;;5053116;28;19921;-63
2023/04/11 09:22:52;;;;;;;;;;;11.30;1.00;;;;;;5049059;28;19924;-63
2023/04/11 09:25:18;;;;;;;;;;;10.90;1.00;;;;;;5052989;28;19966;-63
2023/04/11 09:27:45;;;;;;;;;;;11.10;18.40;;;;;;5052477;28;19967;-63
2023/04/11 09:30:21;;;;;;;;;;;11.30;16.50;;;;;;5052721;28;19921;-63
2023/04/11 09:32:48;;;;;;;;;;;11.40;1.00;;;;;;5052797;28;19920;-63
2023/04/11 09:35:19;;;;;;;;;;;11.50;1.00;;;;;;5052523;28;19936;-63
2023/04/11 09:37:46;;;;;;;;;;;11.30;99.90;;;;;;5052363;28;19971;-63
2023/04/11 09:40:13;;;;;;;;;;;11.20;99.90;;;;;;5052823;28;19925;-64
2023/04/11 09:42:40;;;;;;;;;;;11.10;99.90;;;;;;5051652;28;19920;-63
2023/04/11 09:45:15;;;;;;;;;;;11.10;1.00;;;;;;5052262;28;19951;-63
2023/04/11 09:47:42;;;;;;;;;;;11.00;1.00;;;;;;5052010;28;19982;-63
2023/04/11 09:50:08;;;;;;;;;;;10.90;1.00;;;;;;5052654;28;19920;-63
2023/04/11 09:52:38;;;;;;;;;;;10.80;1.00;;;;;;5052430;28;19955;-63
2023/04/11 09:55:06;;;;;;;;;;;11.00;1.00;;;;;;5048629;28;19927;-64
2023/04/11 09:57:34;;;;;;;;;;;11.30;1.00;;;;;;5051012;28;19967;-63
2023/04/11 10:00:09;;;;;;;;;;;11.40;99.90;;;;;;5050888;28;19986;-63
2023/04/11 10:02:35;;;;;;;;;;;11.50;99.90;;;;;;5054283;28;20303;-63
2023/04/11 10:05:03;;;;;;;;;;;11.50;99.90;;;;;;5055443;28;19925;-63
2023/04/11 10:07:29;;;;;;;;;;;11.30;99.90;;;;;;5054176;28;20524;-63
2023/04/11 10:09:57;;;;;;;;;;;11.50;1.00;;;;;;5052963;28;19971;-63
2023/04/11 10:12:30;;;;;;;;;;;11.60;99.90;;;;;;5052041;28;19920;-63
2023/04/11 10:14:57;;;;;;;;;;;11.70;99.90;;;;;;5051815;28;19921;-63
2023/04/11 10:17:24;;;;;;;;;;;11.90;99.90;;;;;;5051386;28;20566;-63
2023/04/11 10:19:55;;;;;;;;;;;12.10;99.90;;;;;;5052222;28;19971;-64
2023/04/11 10:22:40;;;;;;;;;;;12.20;99.90;;;;;;5052089;28;19920;-63
2023/04/11 10:25:24;;;;;;;;;;;12.30;99.90;;;;;;5049812;28;19928;-63
2023/04/11 10:27:53;;;;;;;;;;;12.30;99.90;;;;;;5050701;28;19924;-63
2023/04/11 10:30:43;;;;;;;;;;;12.40;99.90;;;;;;5052257;28;19921;-63
2023/04/11 10:33:10;;;;;;;;;;;12.40;99.90;;;;;;5050150;28;19925;-62
2023/04/11 10:35:55;;;;;;;;;;;12.60;99.90;;;;;;5052529;28;19921;-63
2023/04/11 10:38:40;;;;;;;;;;;12.80;99.90;;;;;;5051601;28;20317;-62
2023/04/11 10:41:16;;;;;;;;;;;12.70;99.90;;;;;;5053057;28;20331;-63
2023/04/11 10:43:45;;;;;;;;;;;12.50;99.90;;;;;;5052156;28;19921;-63
2023/04/11 10:46:18;;;;;;;;;;;12.60;99.90;;;;;;5052173;28;19921;-63
2023/04/11 10:48:56;;;;;;;;;;;12.80;99.90;;;;;;5052274;28;19927;-62
2023/04/11 10:51:23;;;;;;;;;;;12.80;99.90;;;;;;5053026;28;19921;-64
2023/04/11 10:53:51;;;;;;;;;;;12.80;99.90;;;;;;5055750;28;19974;-64
2023/04/11 10:56:32;;;;;;;;;;;12.70;99.90;;;;;;5055886;28;20015;-64
2023/04/11 10:59:00;;;;;;;;;;;12.80;99.90;;;;;;5053429;28;19928;-64
2023/04/11 11:01:27;;;;;;;;;;;13.00;99.90;;;;;;5057244;28;19928;-63
2023/04/11 11:03:55;;;;;;;;;;;13.10;99.90;;;;;;5056629;28;19921;-64
2023/04/11 11:06:22;;;;;;;;;;;13.30;99.90;;;;;;5056498;28;19970;-63
2023/04/11 11:08:48;;;;;;;;;;;13.30;99.90;;;;;;5056255;28;19927;-63
2023/04/11 11:11:16;;;;;;;;;;;13.10;99.90;;;;;;5057005;28;19920;-64
2023/04/11 11:13:43;;;;;;;;;;;13.00;99.90;;;;;;5056348;28;19921;-65
2023/04/11 11:16:13;;;;;;;;;;;12.80;99.90;;;;;;5055708;28;19928;-65
2023/04/11 11:18:40;;;;;;;;;;;12.70;99.90;;;;;;5056670;28;19928;-64
2023/04/11 11:21:07;;;;;;;;;;;12.70;99.90;;;;;;5052428;28;20011;-61
2023/04/11 11:23:34;;;;;;;;;;;12.90;99.90;;;;;;5055872;28;19970;-63
2023/04/11 11:26:00;;;;;;;;;;;13.10;99.90;;;;;;5056560;28;19921;-63
2023/04/11 11:28:27;;;;;;;;;;;13.20;99.90;;;;;;5056781;28;19921;-63
2023/04/11 11:30:54;;;;;;;;;;;13.30;99.90;;;;;;5055779;28;19928;-64
2023/04/11 11:33:23;;;;;;;;;;;13.30;99.90;;;;;;5051597;28;19924;-63
2023/04/11 11:35:51;;;;;;;;;;;13.30;99.90;;;;;;5055253;28;20399;-63
2023/04/11 11:38:18;;;;;;;;;;;13.50;99.90;;;;;;5054938;28;19921;-63
2023/04/11 11:40:45;;;;;;;;;;;13.70;99.90;;;;;;5055062;28;19925;-64
2023/04/11 11:43:12;;;;;;;;;;;13.90;99.90;;;;;;5055966;28;19928;-64
2023/04/11 11:45:38;;;;;;;;;;;13.70;99.90;;;;;;5055263;28;19920;-63
2023/04/11 11:48:05;;;;;;;;;;;13.90;99.90;;;;;;5054924;28;19982;-61
2023/04/11 11:50:33;;;;;;;;;;;13.90;99.90;;;;;;5054848;28;19947;-64
2023/04/11 11:53:12;;;;;;;;;;;13.90;99.90;;;;;;5054600;28;20387;-61
2023/04/11 11:55:39;;;;;;;;;;;13.80;99.90;;;;;;5051617;28;20291;-65
2023/04/11 11:58:06;;;;;;;;;;;13.90;99.90;;;;;;5054012;28;19920;-62
2023/04/11 12:00:36;;;;;;;;;;;13.60;99.90;;;;;;5050779;28;20342;-63
2023/04/11 12:03:03;;;;;;;;;;;13.70;99.90;;;;;;5054010;28;19976;-63
2023/04/11 12:05:31;;;;;;;;;;;13.70;99.90;;;;;;5053857;28;19920;-63
2023/04/11 12:07:59;;;;;;;;;;;13.50;99.90;;;;;;5053771;28;19925;-63
2023/04/11 12:10:27;;;;;;;;;;;13.40;99.90;;;;;;5054249;28;20004;-63
2023/04/11 12:12:54;;;;;;;;;;;13.50;99.90;;;;;;5053964;28;19920;-63
2023/04/11 12:15:21;;;;;;;;;;;13.60;99.90;;;;;;5053765;28;19975;-64
2023/04/11 12:17:48;;;;;;;;;;;13.80;99.90;;;;;;5053761;28;19924;-63
2023/04/11 12:20:15;;;;;;;;;;;13.70;99.90;;;;;;5054163;28;19967;-63
2023/04/11 12:22:41;;;;;;;;;;;13.80;99.90;;;;;;5053831;28;20391;-63
2023/04/11 12:25:11;;;;;;;;;;;13.90;99.90;;;;;;5054102;28;19921;-63
2023/04/11 12:27:37;;;;;;;;;;;13.70;99.90;;;;;;5052748;28;20326;-63
2023/04/11 12:30:05;;;;;;;;;;;13.50;99.90;;;;;;5049461;28;20445;-63
2023/04/11 12:32:32;;;;;;;;;;;13.30;99.90;;;;;;5051775;28;19921;-60
2023/04/11 12:34:59;;;;;;;;;;;13.40;99.90;;;;;;5049387;28;19928;-63
2023/04/11 12:37:25;;;;;;;;;;;13.40;99.90;;;;;;5051898;28;19924;-62
2023/04/11 12:39:52;;;;;;;;;;;13.50;99.90;;;;;;5048536;28;19925;-63
2023/04/11 12:42:20;;;;;;;;;;;13.50;99.90;;;;;;5053358;28;19963;-60
2023/04/11 12:44:46;;;;;;;;;;;13.30;99.90;;;;;;5046343;28;19925;-59
2023/04/11 12:47:13;;;;;;;;;;;13.30;99.90;;;;;;5047792;28;19943;-62
2023/04/11 12:49:39;;;;;;;;;;;13.50;99.90;;;;;;5052139;28;19929;-62
2023/04/11 12:52:07;;;;;;;;;;;13.80;99.90;;;;;;5052453;28;19921;-60
2023/04/11 12:54:33;;;;;;;;;;;14.10;99.90;;;;;;5045119;28;20032;-61
2023/04/11 12:57:00;;;;;;;;;;;14.10;99.90;;;;;;5050877;28;19921;-61
2023/04/11 12:59:28;;;;;;;;;;;14.20;99.90;;;;;;5043041;28;19974;-59
2023/04/11 13:01:56;;;;;;;;;;;14.10;99.90;;;;;;5046083;28;19986;-61
2023/04/11 13:04:22;;;;;;;;;;;13.90;99.90;;;;;;5046480;28;19994;-63
2023/04/11 13:06:51;;;;;;;;;;;13.90;99.90;;;;;;5047237;28;20342;-58
2023/04/11 13:09:18;;;;;;;;;;;13.70;99.90;;;;;;5047691;28;19943;-56
2023/04/11 13:11:44;;;;;;;;;;;13.90;99.90;;;;;;5051569;28;19924;-61
2023/04/11 13:14:11;;;;;;;;;;;14.00;99.90;;;;;;5045826;28;19924;-63
2023/04/11 13:16:39;;;;;;;;;;;14.00;99.90;;;;;;5041732;28;19921;-62
2023/04/11 13:19:05;;;;;;;;;;;14.10;99.90;;;;;;5051836;28;20282;-63
2023/04/11 13:21:32;;;;;;;;;;;14.10;99.90;;;;;;5047692;28;19925;-60
2023/04/11 13:23:58;;;;;;;;;;;14.30;99.90;;;;;;5051209;28;20012;-61
2023/04/11 13:26:25;;;;;;;;;;;14.40;99.90;;;;;;5042502;28;19921;-60
2023/04/11 13:28:52;;;;;;;;;;;14.50;99.90;;;;;;5052587;28;19978;-62
2023/04/11 13:31:25;;;;;;;;;;;14.50;99.90;;;;;;5045800;28;19920;-65
2023/04/11 13:33:53;;;;;;;;;;;14.50;99.90;;;;;;5052553;28;19925;-63
2023/04/11 13:36:19;;;;;;;;;;;14.50;99.90;;;;;;5048404;28;19978;-64
2023/04/11 13:38:46;;;;;;;;;;;14.70;99.90;;;;;;5052983;28;19920;-65
2023/04/11 13:41:13;;;;;;;;;;;15.00;99.90;;;;;;5047922;28;19928;-63
2023/04/11 13:43:40;;;;;;;;;;;15.10;99.90;;;;;;5052741;28;19927;-63
2023/04/11 13:46:06;;;;;;;;;;;15.20;99.90;;;;;;5047897;28;19921;-63
2023/04/11 13:48:33;;;;;;;;;;;15.20;99.90;;;;;;5051933;28;19923;-64
2023/04/11 13:51:00;;;;;;;;;;;15.20;99.90;;;;;;5047260;28;19921;-64
2023/04/11 13:53:27;;;;;;;;;;;15.10;99.90;;;;;;5051692;28;19921;-64
2023/04/11 13:55:54;;;;;;;;;;;15.00;99.90;;;;;;5050357;28;20016;-63
2023/04/11 13:58:21;;;;;;;;;;;14.80;99.90;;;;;;5051886;28;20569;-63
2023/04/11 14:00:48;;;;;;;;;;;14.70;99.90;;;;;;5046716;28;19921;-64
2023/04/11 14:03:15;;;;;;;;;;;14.70;99.90;;;;;;5052055;28;19924;-63
2023/04/11 14:05:41;;;;;;;;;;;14.90;99.90;;;;;;5048186;28;19921;-63
2023/04/11 14:08:09;;;;;;;;;;;15.10;99.90;;;;;;5051559;28;20304;-63
2023/04/11 14:10:35;;;;;;;;;;;14.90;99.90;;;;;;5044323;28;19928;-64
2023/04/11 14:13:04;;;;;;;;;;;14.80;99.90;;;;;;5051919;28;20547;-64
2023/04/11 14:15:30;;;;;;;;;;;14.60;99.90;;;;;;5044922;28;19928;-62
2023/04/11 14:17:57;;;;;;;;;;;14.10;99.90;;;;;;5051752;28;19986;-63
2023/04/11 14:20:24;;;;;;;;;;;13.60;99.90;;;;;;5051822;28;19975;-63
2023/04/11 14:22:51;;;;;;;;;;;13.50;99.90;;;;;;5048702;28;19927;-63
2023/04/11 14:25:19;;;;;;;;;;;13.50;99.90;;;;;;5048768;28;20342;-65
2023/04/11 14:27:46;;;;;;;;;;;13.60;99.90;;;;;;5053991;28;19920;-64
2023/04/11 14:30:12;;;;;;;;;;;13.60;99.90;;;;;;5050588;28;19929;-64
2023/04/11 14:32:39;;;;;;;;;;;13.60;99.90;;;;;;5056215;28;20346;-63
2023/04/11 14:35:07;;;;;;;;;;;13.80;99.90;;;;;;5051330;28;19921;-63